createdAt,value
2023-01-01T00:01:55.083Z,100680.97
2023-01-01T00:04:22.853Z,100684.81
2023-01-01T00:06:50.600Z,100691.47
2023-01-01T00:09:36.863Z,100686.50
2023-01-01T00:12:05.044Z,100676.16
2023-01-01T00:14:32.758Z,100687.66
2023-01-01T00:17:00.513Z,100687.16
2023-01-01T00:19:28.250Z,100690.19
2023-01-01T00:21:55.938Z,100685.47
2023-01-01T00:24:25.062Z,100693.19
2023-01-01T00:26:52.803Z,100686.16
2023-01-01T00:29:20.543Z,100680.81
2023-01-01T00:31:48.326Z,100678.81
2023-01-01T00:34:16.028Z,100678.63
2023-01-01T00:36:43.820Z,100677.16
2023-01-01T00:39:11.600Z,100689.13
2023-01-01T00:41:40.713Z,100681.13
2023-01-01T00:44:08.417Z,100674.44
2023-01-01T00:46:36.151Z,100672.94
2023-01-01T00:49:03.893Z,100677.44
2023-01-01T00:51:36.764Z,100680.44
2023-01-01T00:54:05.061Z,100676.59
2023-01-01T00:56:32.920Z,100668.59
2023-01-01T00:59:02.096Z,100665.41
2023-01-01T01:01:30.129Z,100665.94
2023-01-01T01:03:57.956Z,100661.75
2023-01-01T01:06:25.640Z,100668.25
2023-01-01T01:08:53.367Z,100666.78
2023-01-01T01:11:22.788Z,100667.75
2023-01-01T01:13:52.347Z,100666.25
2023-01-01T01:16:30.068Z,100664.25
2023-01-01T01:19:00.252Z,100674.09
2023-01-01T01:21:29.505Z,100678.72
2023-01-01T01:23:58.934Z,100679.06
2023-01-01T01:26:28.997Z,100680.44
2023-01-01T01:28:57.606Z,100682.41
2023-01-01T01:31:30.272Z,100679.56
2023-01-01T01:33:58.225Z,100688.41
2023-01-01T01:36:26.624Z,100696.56
2023-01-01T01:38:54.730Z,100690.91
2023-01-01T01:41:29.137Z,100680.94
2023-01-01T01:43:59.744Z,100683.91
2023-01-01T01:46:33.541Z,100686.41
2023-01-01T01:49:04.756Z,100685.91
2023-01-01T01:51:36.116Z,100686.72
2023-01-01T01:54:08.343Z,100681.41
2023-01-01T01:56:44.336Z,100677.22
2023-01-01T01:59:12.590Z,100680.38
2023-01-01T02:01:42.407Z,100679.56
2023-01-01T02:04:10.363Z,100686.41
2023-01-01T02:06:40.723Z,100688.38
2023-01-01T02:09:10.260Z,100679.41
2023-01-01T02:11:38.504Z,100683.72
2023-01-01T02:14:07.376Z,100686.88
2023-01-01T02:16:40.597Z,100683.38
2023-01-01T02:19:18.303Z,100695.03
2023-01-01T02:21:57.493Z,100687.69
2023-01-01T02:24:44.345Z,100689.38
2023-01-01T02:27:20.985Z,100687.38
2023-01-01T02:29:53.883Z,100682.19
2023-01-01T02:32:26.139Z,100692.69
2023-01-01T02:34:59.407Z,100697.69
2023-01-01T02:37:29.418Z,100697.53
2023-01-01T02:40:00.213Z,100693.34
2023-01-01T02:42:30.225Z,100694.38
2023-01-01T02:45:00.735Z,100699.00
2023-01-01T02:47:28.544Z,100704.50
2023-01-01T02:50:04.153Z,100699.00
2023-01-01T02:53:00.904Z,100710.16
2023-01-01T02:55:38.469Z,100711.34
2023-01-01T02:58:30.800Z,100711.66
2023-01-01T03:01:10.757Z,100708.97
2023-01-01T03:03:43.118Z,100711.31
2023-01-01T03:06:23.711Z,100710.00
2023-01-01T03:08:59.117Z,100718.63
2023-01-01T03:11:35.722Z,100711.31
2023-01-01T03:14:10.760Z,100714.31
2023-01-01T03:16:43.743Z,100719.34
2023-01-01T03:19:16.446Z,100715.84
2023-01-01T03:21:50.086Z,100719.69
2023-01-01T03:24:23.990Z,100709.69
2023-01-01T03:26:56.453Z,100716.34
2023-01-01T03:29:25.241Z,100717.16
2023-01-01T03:31:58.114Z,100723.84
2023-01-01T03:34:32.765Z,100725.19
2023-01-01T03:37:04.131Z,100730.03
2023-01-01T03:39:35.779Z,100723.84
2023-01-01T03:42:13.907Z,100730.16
2023-01-01T03:44:47.219Z,100744.50
2023-01-01T03:47:16.896Z,100724.00
2023-01-01T03:49:45.754Z,100733.00
2023-01-01T03:52:28.265Z,100733.50
2023-01-01T03:55:05.121Z,100733.69
2023-01-01T03:57:38.734Z,100730.50
2023-01-01T04:00:11.166Z,100734.50
2023-01-01T04:02:46.309Z,100724.13
2023-01-01T04:05:15.228Z,100724.97
2023-01-01T04:10:18.152Z,100743.63
2023-01-01T04:12:48.271Z,100725.13
2023-01-01T04:15:16.521Z,100731.59
2023-01-01T04:17:45.633Z,100728.06
2023-01-01T04:20:14.244Z,100727.31
2023-01-01T04:22:42.108Z,100726.78
2023-01-01T04:25:11.353Z,100729.25
2023-01-01T04:27:39.849Z,100734.56
2023-01-01T04:30:10.172Z,100733.59
2023-01-01T04:32:38.227Z,100727.38
2023-01-01T04:35:09.058Z,100733.56
2023-01-01T04:37:36.967Z,100723.72
2023-01-01T04:40:05.202Z,100727.06
2023-01-01T04:42:35.848Z,100741.16
2023-01-01T04:45:03.997Z,100728.22
2023-01-01T04:47:31.730Z,100748.69
2023-01-01T04:49:59.535Z,100751.50
2023-01-01T04:52:28.525Z,100738.34
2023-01-01T04:54:56.382Z,100736.97
2023-01-01T04:57:24.099Z,100743.34
2023-01-01T04:59:51.793Z,100746.00
2023-01-01T05:02:19.929Z,100753.16
2023-01-01T05:04:48.011Z,100758.78
2023-01-01T05:07:15.780Z,100760.09
2023-01-01T05:09:44.938Z,100758.09
2023-01-01T05:12:12.674Z,100752.59
2023-01-01T05:14:40.519Z,100756.38
2023-01-01T05:17:08.324Z,100761.22
2023-01-01T05:19:36.108Z,100761.72
2023-01-01T05:22:10.177Z,100760.75
2023-01-01T05:24:38.376Z,100758.69
2023-01-01T05:27:07.414Z,100765.16
2023-01-01T05:29:35.206Z,100771.84
2023-01-01T05:32:02.959Z,100776.34
2023-01-01T05:36:57.351Z,100791.28
2023-01-01T05:39:25.106Z,100787.41
2023-01-01T05:41:52.875Z,100779.94
2023-01-01T05:44:21.904Z,100776.44
2023-01-01T05:46:49.649Z,100792.72
2023-01-01T05:49:17.288Z,100796.38
2023-01-01T05:51:44.981Z,100805.72
2023-01-01T05:56:39.343Z,100807.75
2023-01-01T05:59:07.080Z,100803.56
2023-01-01T06:01:43.306Z,100798.56
2023-01-01T06:04:13.088Z,100802.53
2023-01-01T06:06:41.044Z,100810.44
2023-01-01T06:09:08.666Z,100812.44
2023-01-01T06:11:36.541Z,100807.78
2023-01-01T06:14:04.363Z,100810.75
2023-01-01T06:16:32.990Z,100820.34
2023-01-01T06:19:02.116Z,100820.34
2023-01-01T06:21:30.743Z,100822.66
2023-01-01T06:23:59.851Z,100827.56
2023-01-01T06:26:29.409Z,100824.75
2023-01-01T06:28:57.904Z,100824.25
2023-01-01T06:31:25.773Z,100831.91
2023-01-01T06:33:53.666Z,100829.31
2023-01-01T06:36:25.118Z,100831.31
2023-01-01T06:38:55.945Z,100833.28
2023-01-01T06:41:25.412Z,100822.72
2023-01-01T06:43:53.687Z,100841.13
2023-01-01T06:46:23.023Z,100843.09
2023-01-01T06:48:54.177Z,100844.44
2023-01-01T06:51:24.676Z,100847.50
2023-01-01T06:53:53.576Z,100846.97
2023-01-01T06:56:22.340Z,100865.28
2023-01-01T06:58:50.253Z,100849.31
2023-01-01T07:01:20.083Z,100860.25
2023-01-01T07:03:52.864Z,100869.78
2023-01-01T07:06:20.783Z,100867.13
2023-01-01T07:08:49.970Z,100873.97
2023-01-01T07:11:18.133Z,100876.47
2023-01-01T07:13:48.233Z,100862.16
2023-01-01T07:16:16.163Z,100877.22
2023-01-01T07:18:44.168Z,100877.28
2023-01-01T07:21:29.843Z,100878.22
2023-01-01T07:24:00.218Z,100884.06
2023-01-01T07:26:29.987Z,100887.56
2023-01-01T07:29:04.473Z,100883.00
2023-01-01T07:31:34.763Z,100887.72
2023-01-01T07:34:02.731Z,100891.41
2023-01-01T07:36:30.392Z,100900.03
2023-01-01T07:38:59.734Z,100890.69
2023-01-01T07:41:27.472Z,100902.44
2023-01-01T07:43:55.290Z,100910.19
2023-01-01T07:46:23.409Z,100924.22
2023-01-01T07:48:51.298Z,100932.44
2023-01-01T07:51:19.056Z,100927.16
2023-01-01T07:53:46.911Z,100925.00
2023-01-01T07:56:16.171Z,100936.38
2023-01-01T07:58:43.980Z,100933.06
2023-01-01T08:01:12.690Z,100925.28
2023-01-01T08:03:40.640Z,100928.84
2023-01-01T08:06:10.626Z,100918.50
2023-01-01T08:08:38.608Z,100920.53
2023-01-01T08:11:07.423Z,100926.41
2023-01-01T08:13:36.802Z,100930.47
2023-01-01T08:16:05.119Z,100929.03
2023-01-01T08:18:32.894Z,100939.38
2023-01-01T08:21:00.822Z,100942.88
2023-01-01T08:23:28.689Z,100938.69
2023-01-01T08:25:59.762Z,100939.06
2023-01-01T08:28:27.444Z,100935.72
2023-01-01T08:30:56.586Z,100930.09
2023-01-01T08:33:25.130Z,100931.94
2023-01-01T08:35:54.600Z,100924.75
2023-01-01T08:38:23.023Z,100939.09
2023-01-01T08:40:50.772Z,100941.13
2023-01-01T08:43:18.860Z,100948.47
2023-01-01T08:45:46.829Z,100945.47
2023-01-01T08:48:15.876Z,100945.81
2023-01-01T08:50:43.561Z,100936.75
2023-01-01T08:53:11.195Z,100934.44
2023-01-01T08:55:38.873Z,100936.78
2023-01-01T08:58:07.486Z,100959.50
2023-01-01T09:00:35.241Z,100962.00
2023-01-01T09:03:03.044Z,100959.63
2023-01-01T09:05:32.239Z,100965.38
2023-01-01T09:07:59.958Z,100959.19
2023-01-01T09:10:27.646Z,100974.69
2023-01-01T09:12:55.328Z,100981.88
2023-01-01T09:15:24.244Z,100982.22
2023-01-01T09:17:51.910Z,100983.22
2023-01-01T09:20:19.535Z,100976.53
2023-01-01T09:22:48.569Z,100981.50
2023-01-01T09:25:16.343Z,100994.19
2023-01-01T09:27:43.994Z,101003.88
2023-01-01T09:30:12.475Z,100997.28
2023-01-01T09:32:40.199Z,100999.47
2023-01-01T09:35:08.399Z,101009.78
2023-01-01T09:37:36.063Z,101002.09
2023-01-01T09:40:05.732Z,101009.66
2023-01-01T09:42:41.487Z,101010.78
2023-01-01T09:45:32.563Z,101013.31
2023-01-01T09:48:03.292Z,101014.16
2023-01-01T09:50:36.807Z,101007.13
2023-01-01T09:53:11.107Z,100997.75
2023-01-01T09:55:45.796Z,101006.16
2023-01-01T09:58:14.423Z,101002.31
2023-01-01T10:00:45.556Z,100995.47
2023-01-01T10:03:30.439Z,100994.41
2023-01-01T10:06:07.175Z,100987.25
2023-01-01T10:08:48.833Z,100992.59
2023-01-01T10:11:25.675Z,101004.47
2023-01-01T10:13:57.805Z,100993.38
2023-01-01T10:16:33.265Z,100995.88
2023-01-01T10:19:08.590Z,100997.47
2023-01-01T10:21:46.623Z,100991.44
2023-01-01T10:24:32.593Z,100994.25
2023-01-01T10:27:04.432Z,100988.56
2023-01-01T10:29:39.635Z,100993.47
2023-01-01T10:32:18.601Z,100985.38
2023-01-01T10:34:46.489Z,100992.47
2023-01-01T10:37:15.804Z,100983.78
2023-01-01T10:39:44.871Z,100983.47
2023-01-01T10:42:16.083Z,100982.41
2023-01-01T10:44:44.709Z,100977.22
2023-01-01T10:47:25.512Z,100971.22
2023-01-01T10:50:00.402Z,100971.63
2023-01-01T10:52:32.674Z,100970.84
2023-01-01T10:55:01.027Z,100971.59
2023-01-01T10:57:37.862Z,100969.47
2023-01-01T11:00:21.781Z,100971.28
2023-01-01T11:03:06.476Z,100964.38
2023-01-01T11:05:34.224Z,100965.19
2023-01-01T11:08:01.939Z,100961.88
2023-01-01T11:10:31.229Z,100965.06
2023-01-01T11:13:05.155Z,100964.41
2023-01-01T11:15:38.623Z,100959.06
2023-01-01T11:18:07.905Z,100955.50
2023-01-01T11:20:35.697Z,100957.91
2023-01-01T11:23:20.877Z,100944.09
2023-01-01T11:26:07.811Z,100944.81
2023-01-01T11:28:37.214Z,100955.22
2023-01-01T11:31:11.549Z,100953.66
2023-01-01T11:33:44.620Z,100945.19
2023-01-01T11:36:13.189Z,100944.75
2023-01-01T11:38:41.011Z,100949.50
2023-01-01T11:41:08.892Z,100952.50
2023-01-01T11:43:45.039Z,100950.84
2023-01-01T11:46:20.083Z,100943.97
2023-01-01T11:48:47.925Z,100938.28
2023-01-01T11:51:30.761Z,100937.44
2023-01-01T11:54:23.665Z,100936.63
2023-01-01T11:56:55.331Z,100923.88
2023-01-01T11:59:28.470Z,100923.31
2023-01-01T12:02:00.277Z,100914.41
2023-01-01T12:04:32.671Z,100919.59
2023-01-01T12:07:05.691Z,100919.31
2023-01-01T12:09:41.951Z,100916.44
2023-01-01T12:12:14.327Z,100902.50
2023-01-01T12:14:53.657Z,100906.25
2023-01-01T12:17:25.471Z,100906.97
2023-01-01T12:20:01.509Z,100904.63
2023-01-01T12:22:29.688Z,100907.03
2023-01-01T12:24:58.593Z,100912.41
2023-01-01T12:27:42.505Z,100905.38
2023-01-01T12:30:22.605Z,100905.53
2023-01-01T12:33:29.572Z,100902.25
2023-01-01T12:36:07.368Z,100906.75
2023-01-01T12:38:55.459Z,100907.31
2023-01-01T12:41:31.301Z,100902.97
2023-01-01T12:44:07.285Z,100904.47
2023-01-01T12:46:47.757Z,100899.31
2023-01-01T12:49:31.452Z,100895.59
2023-01-01T12:52:13.523Z,100900.16
2023-01-01T12:55:08.776Z,100895.44
2023-01-01T12:57:42.458Z,100891.59
2023-01-01T13:00:16.244Z,100891.88
2023-01-01T13:02:51.211Z,100899.75
2023-01-01T13:05:23.585Z,100894.09
2023-01-01T13:07:56.821Z,100898.13
2023-01-01T13:10:28.221Z,100901.13
2023-01-01T13:12:57.206Z,100897.78
2023-01-01T13:15:44.803Z,100894.44
2023-01-01T13:18:26.884Z,100901.16
2023-01-01T13:21:06.504Z,100891.47
2023-01-01T13:23:52.786Z,100894.47
2023-01-01T13:26:37.329Z,100888.47
2023-01-01T13:29:41.649Z,100888.66
2023-01-01T13:32:11.886Z,100892.53
2023-01-01T13:35:05.762Z,100890.69
2023-01-01T13:37:45.009Z,100890.03
2023-01-01T13:40:34.096Z,100893.53
2023-01-01T13:43:21.210Z,100893.53
2023-01-01T13:46:13.574Z,100896.09
2023-01-01T13:49:13.377Z,100889.06
2023-01-01T13:52:07.466Z,100893.59
2023-01-01T13:55:08.694Z,100887.72
2023-01-01T13:58:07.440Z,100889.72
2023-01-01T14:00:49.896Z,100890.94
2023-01-01T14:03:19.305Z,100891.94
2023-01-01T14:05:51.165Z,100888.25
2023-01-01T14:08:31.927Z,100881.25
2023-01-01T14:11:02.156Z,100894.63
2023-01-01T14:13:32.578Z,100883.38
2023-01-01T14:16:03.414Z,100883.88
2023-01-01T14:18:35.207Z,100888.69
2023-01-01T14:21:03.677Z,100892.88
2023-01-01T14:23:35.898Z,100881.84
2023-01-01T14:26:07.487Z,100883.00
2023-01-01T14:28:36.728Z,100884.69
2023-01-01T14:31:11.479Z,100890.88
2023-01-01T14:33:40.008Z,100891.03
2023-01-01T14:36:18.101Z,100893.88
2023-01-01T14:38:48.945Z,100895.41
2023-01-01T14:41:21.221Z,100894.75
2023-01-01T14:43:52.010Z,100899.44
2023-01-01T14:46:22.069Z,100898.28
2023-01-01T14:48:53.886Z,100897.63
2023-01-01T14:51:24.930Z,100896.31
2023-01-01T14:53:57.619Z,100892.63
2023-01-01T14:56:28.206Z,100881.28
2023-01-01T14:59:07.972Z,100878.75
2023-01-01T15:01:36.002Z,100871.25
2023-01-01T15:04:05.432Z,100884.28
2023-01-01T15:06:33.787Z,100879.25
2023-01-01T15:09:02.952Z,100883.31
2023-01-01T15:11:30.688Z,100877.13
2023-01-01T15:14:01.018Z,100875.44
2023-01-01T15:16:33.408Z,100872.59
2023-01-01T15:19:19.507Z,100865.59
2023-01-01T15:21:47.510Z,100860.25
2023-01-01T15:24:22.001Z,100863.63
2023-01-01T15:26:53.005Z,100850.72
2023-01-01T15:29:28.435Z,100854.41
2023-01-01T15:31:59.045Z,100850.44
2023-01-01T15:34:32.663Z,100854.78
2023-01-01T15:37:11.190Z,100848.22
2023-01-01T15:39:52.231Z,100849.91
2023-01-01T15:42:24.974Z,100851.56
2023-01-01T15:44:52.710Z,100851.25
2023-01-01T15:47:26.480Z,100852.25
2023-01-01T15:50:08.508Z,100850.44
2023-01-01T15:52:36.978Z,100850.59
2023-01-01T15:55:07.132Z,100854.94
2023-01-01T15:57:34.914Z,100849.94
2023-01-01T16:00:02.739Z,100852.31
2023-01-01T16:02:33.698Z,100855.31
2023-01-01T16:05:01.601Z,100857.63
2023-01-01T16:07:29.808Z,100872.00
2023-01-01T16:09:58.396Z,100859.66
2023-01-01T16:12:27.974Z,100869.00
2023-01-01T16:14:55.713Z,100869.34
2023-01-01T16:17:25.213Z,100857.31
2023-01-01T16:19:54.824Z,100853.97
2023-01-01T16:22:22.560Z,100848.63
2023-01-01T16:24:50.271Z,100839.28
2023-01-01T16:27:20.652Z,100840.13
2023-01-01T16:29:54.641Z,100839.59
2023-01-01T16:32:22.888Z,100833.44
2023-01-01T16:34:50.672Z,100838.28
2023-01-01T16:37:22.515Z,100827.59
2023-01-01T16:39:50.596Z,100831.94
2023-01-01T16:42:18.594Z,100827.25
2023-01-01T16:44:46.271Z,100818.59
2023-01-01T16:47:15.587Z,100807.59
2023-01-01T16:49:44.397Z,100812.94
2023-01-01T16:52:12.098Z,100820.78
2023-01-01T16:54:40.254Z,100820.09
2023-01-01T16:57:08.060Z,100814.59
2023-01-01T16:59:35.835Z,100812.91
2023-01-01T17:02:03.732Z,100800.56
2023-01-01T17:04:35.166Z,100801.25
2023-01-01T17:07:02.922Z,100800.91
2023-01-01T17:09:30.732Z,100797.41
2023-01-01T17:11:58.532Z,100793.56
2023-01-01T17:14:26.328Z,100788.22
2023-01-01T17:16:56.360Z,100783.88
2023-01-01T17:19:24.200Z,100790.88
2023-01-01T17:21:53.335Z,100779.19
2023-01-01T17:24:21.708Z,100773.03
2023-01-01T17:26:53.119Z,100773.53
2023-01-01T17:29:21.023Z,100783.41
2023-01-01T17:31:49.036Z,100787.22
2023-01-01T17:34:17.014Z,100782.56
2023-01-01T17:36:48.332Z,100782.72
2023-01-01T17:39:20.354Z,100778.56
2023-01-01T17:41:48.012Z,100785.41
2023-01-01T17:44:16.165Z,100785.56
2023-01-01T17:46:44.492Z,100779.88
2023-01-01T17:49:12.541Z,100783.88
2023-01-01T17:51:40.248Z,100791.56
2023-01-01T17:54:11.631Z,100777.38
2023-01-01T17:56:40.707Z,100772.22
2023-01-01T17:59:09.373Z,100770.53
2023-01-01T18:01:37.418Z,100759.22
2023-01-01T18:04:08.123Z,100752.50
2023-01-01T18:06:41.935Z,100746.34
2023-01-01T18:09:13.053Z,100747.00
2023-01-01T18:11:43.076Z,100749.50
2023-01-01T18:14:11.963Z,100741.00
2023-01-01T18:16:41.849Z,100724.47
2023-01-01T18:19:09.580Z,100720.47
2023-01-01T18:21:37.374Z,100706.97
2023-01-01T18:24:11.811Z,100728.50
2023-01-01T18:26:39.551Z,100730.00
2023-01-01T18:29:08.689Z,100732.97
2023-01-01T18:31:36.479Z,100731.16
2023-01-01T18:34:04.674Z,100723.66
2023-01-01T18:36:34.619Z,100722.97
2023-01-01T18:39:04.491Z,100723.81
2023-01-01T18:41:44.765Z,100731.84
2023-01-01T18:44:20.763Z,100728.50
2023-01-01T18:46:55.442Z,100724.47
2023-01-01T18:49:25.122Z,100731.19
2023-01-01T18:51:56.714Z,100719.50
2023-01-01T18:54:26.337Z,100712.34
2023-01-01T18:57:02.963Z,100707.50
2023-01-01T18:59:33.132Z,100707.84
2023-01-01T19:02:01.684Z,100688.16
2023-01-01T19:04:29.481Z,100687.81
2023-01-01T19:06:57.296Z,100692.50
2023-01-01T19:09:26.905Z,100694.50
2023-01-01T19:11:56.437Z,100696.50
2023-01-01T19:14:27.252Z,100695.81
2023-01-01T19:17:01.354Z,100711.16
2023-01-01T19:19:30.903Z,100706.50
2023-01-01T19:22:07.592Z,100711.00
2023-01-01T19:24:36.903Z,100699.50
2023-01-01T19:27:14.265Z,100704.16
2023-01-01T19:29:44.828Z,100691.84
2023-01-01T19:32:13.908Z,100698.50
2023-01-01T19:34:41.760Z,100679.97
2023-01-01T19:37:10.691Z,100684.50
2023-01-01T19:39:39.041Z,100680.16
2023-01-01T19:42:07.134Z,100682.81
2023-01-01T19:44:36.556Z,100690.50
2023-01-01T19:47:05.397Z,100682.66
2023-01-01T19:49:34.476Z,100677.31
2023-01-01T19:52:03.607Z,100682.19
2023-01-01T19:54:31.472Z,100680.84
2023-01-01T19:56:59.142Z,100681.50
2023-01-01T19:59:32.873Z,100679.50
2023-01-01T20:02:43.426Z,100678.47
2023-01-01T20:04:50.374Z,100671.50
2023-01-01T20:07:18.359Z,100675.19
2023-01-01T20:09:46.137Z,100678.13
2023-01-01T20:12:13.869Z,100681.97
2023-01-01T20:14:41.553Z,100683.31
2023-01-01T20:17:09.314Z,100677.47
2023-01-01T20:19:38.943Z,100688.97
2023-01-01T20:22:14.345Z,100675.63
2023-01-01T20:24:42.467Z,100681.13
2023-01-01T20:27:10.507Z,100672.28
2023-01-01T20:29:38.476Z,100678.47
2023-01-01T20:32:12.386Z,100670.81
2023-01-01T20:34:40.625Z,100670.16
2023-01-01T20:37:27.023Z,100676.31
2023-01-01T20:39:54.757Z,100673.50
2023-01-01T20:42:22.410Z,100661.31
2023-01-01T20:44:50.285Z,100659.63
2023-01-01T20:47:17.923Z,100663.81
2023-01-01T20:49:45.745Z,100671.16
2023-01-01T20:52:14.852Z,100673.66
2023-01-01T20:54:42.481Z,100677.31
2023-01-01T20:57:10.142Z,100680.31
2023-01-01T20:59:38.675Z,100684.16
2023-01-01T21:02:07.920Z,100676.47
2023-01-01T21:04:38.826Z,100683.31
2023-01-01T21:07:07.953Z,100686.97
2023-01-01T21:09:37.544Z,100679.13
2023-01-01T21:12:06.050Z,100689.50
2023-01-01T21:14:33.810Z,100695.66
2023-01-01T21:17:03.647Z,100693.63
2023-01-01T21:19:31.332Z,100683.47
2023-01-01T21:21:59.476Z,100697.50
2023-01-01T21:24:29.022Z,100702.31
2023-01-01T21:27:06.736Z,100685.16
2023-01-01T21:29:34.495Z,100701.78
2023-01-01T21:32:17.535Z,100700.78
2023-01-01T21:34:45.884Z,100701.78
2023-01-01T21:37:38.589Z,100705.44
2023-01-01T21:40:31.654Z,100704.59
2023-01-01T21:43:13.198Z,100706.28
2023-01-01T21:45:43.709Z,100695.59
2023-01-01T21:48:25.278Z,100693.44
2023-01-01T21:50:53.753Z,100703.13
2023-01-01T21:53:23.261Z,100700.63
2023-01-01T21:55:53.564Z,100700.09
2023-01-01T21:58:42.178Z,100691.94
2023-01-01T22:01:21.603Z,100689.78
2023-01-01T22:04:02.169Z,100691.28
2023-01-01T22:06:36.820Z,100687.44
2023-01-01T22:09:14.805Z,100687.44
2023-01-01T22:11:42.745Z,100683.63
2023-01-01T22:14:15.179Z,100675.13
2023-01-01T22:16:43.376Z,100678.78
2023-01-01T22:19:13.799Z,100674.13
2023-01-01T22:21:41.633Z,100679.81
2023-01-01T22:24:30.634Z,100684.97
2023-01-01T22:27:03.017Z,100684.13
2023-01-01T22:29:33.464Z,100685.63
2023-01-01T22:32:13.002Z,100692.94
2023-01-01T22:34:40.762Z,100695.13
2023-01-01T22:37:11.416Z,100699.09
2023-01-01T22:39:39.121Z,100699.09
2023-01-01T22:42:06.951Z,100690.09
2023-01-01T22:44:36.966Z,100691.13
2023-01-01T22:47:04.990Z,100691.94
2023-01-01T22:49:39.128Z,100690.28
2023-01-01T22:52:07.823Z,100688.81
2023-01-01T22:54:35.599Z,100680.13
2023-01-01T22:57:03.314Z,100679.59
2023-01-01T22:59:31.068Z,100674.28
2023-01-01T23:02:00.889Z,100682.94
2023-01-01T23:04:28.549Z,100683.78
2023-01-01T23:06:56.376Z,100679.44
2023-01-01T23:09:25.315Z,100679.28
2023-01-01T23:11:54.855Z,100681.94
2023-01-01T23:14:40.201Z,100681.44
2023-01-01T23:17:09.620Z,100681.44
2023-01-01T23:19:38.505Z,100683.78
2023-01-01T23:22:06.313Z,100675.13
2023-01-01T23:24:34.421Z,100682.13
2023-01-01T23:27:02.885Z,100679.97
2023-01-01T23:29:33.029Z,100678.28
2023-01-01T23:32:01.783Z,100682.28
2023-01-01T23:34:30.992Z,100684.94
2023-01-01T23:36:59.067Z,100682.44
2023-01-01T23:39:26.774Z,100683.28
2023-01-01T23:41:54.464Z,100684.63
2023-01-01T23:44:23.350Z,100679.59
2023-01-01T23:46:51.155Z,100682.44
2023-01-01T23:49:19.797Z,100673.59
2023-01-01T23:51:49.115Z,100670.94
2023-01-01T23:54:16.986Z,100659.97
2023-01-01T23:56:44.677Z,100657.28
2023-01-01T23:59:12.893Z,100660.63
